sensor_id;sensor_type;location;lat;lon;timestamp;P1;durP1;ratioP1;P2;durP2;ratioP2
43696;SDS011;29301;47.620;19.560;2023-05-24T00:01:35;0.40;;;0.30;;
43696;SDS011;29301;47.620;19.560;2023-05-24T00:04:01;0.40;;;0.30;;
43696;SDS011;29301;47.620;19.560;2023-05-24T00:06:27;0.38;;;0.20;;
43696;SDS011;29301;47.620;19.560;2023-05-24T00:08:53;0.40;;;0.20;;
43696;SDS011;29301;47.620;19.560;2023-05-24T00:11:19;0.30;;;0.20;;
43696;SDS011;29301;47.620;19.560;2023-05-24T00:13:46;0.40;;;0.20;;
43696;SDS011;29301;47.620;19.560;2023-05-24T00:16:12;0.30;;;0.20;;
43696;SDS011;29301;47.620;19.560;2023-05-24T00:18:38;0.30;;;0.20;;
43696;SDS011;29301;47.620;19.560;2023-05-24T00:21:05;0.30;;;0.20;;
43696;SDS011;29301;47.620;19.560;2023-05-24T00:23:32;0.30;;;0.20;;
43696;SDS011;29301;47.620;19.560;2023-05-24T00:25:58;0.40;;;0.20;;
43696;SDS011;29301;47.620;19.560;2023-05-24T00:28:25;0.30;;;0.20;;
43696;SDS011;29301;47.620;19.560;2023-05-24T00:30:51;0.30;;;0.20;;
43696;SDS011;29301;47.620;19.560;2023-05-24T00:33:17;0.30;;;0.20;;
43696;SDS011;29301;47.620;19.560;2023-05-24T00:35:43;0.30;;;0.20;;
43696;SDS011;29301;47.620;19.560;2023-05-24T00:38:08;0.40;;;0.20;;
43696;SDS011;29301;47.620;19.560;2023-05-24T00:40:34;0.30;;;0.20;;
43696;SDS011;29301;47.620;19.560;2023-05-24T00:43:00;0.30;;;0.20;;
43696;SDS011;29301;47.620;19.560;2023-05-24T00:45:26;0.30;;;0.20;;
43696;SDS011;29301;47.620;19.560;2023-05-24T00:47:51;0.30;;;0.20;;
43696;SDS011;29301;47.620;19.560;2023-05-24T00:50:17;0.40;;;0.20;;
43696;SDS011;29301;47.620;19.560;2023-05-24T00:52:44;0.40;;;0.30;;
43696;SDS011;29301;47.620;19.560;2023-05-24T00:55:13;0.30;;;0.20;;
43696;SDS011;29301;47.620;19.560;2023-05-24T00:57:39;0.30;;;0.20;;
43696;SDS011;29301;47.620;19.560;2023-05-24T01:00:05;0.40;;;0.20;;
43696;SDS011;29301;47.620;19.560;2023-05-24T01:02:32;0.30;;;0.20;;
43696;SDS011;29301;47.620;19.560;2023-05-24T01:04:57;0.30;;;0.30;;
43696;SDS011;29301;47.620;19.560;2023-05-24T01:10:20;0.40;;;0.30;;
43696;SDS011;29301;47.620;19.560;2023-05-24T01:13:17;0.30;;;0.20;;
43696;SDS011;29301;47.620;19.560;2023-05-24T01:18:32;0.30;;;0.20;;
43696;SDS011;29301;47.620;19.560;2023-05-24T01:26:31;0.40;;;0.30;;
43696;SDS011;29301;47.620;19.560;2023-05-24T01:29:04;0.40;;;0.30;;
43696;SDS011;29301;47.620;19.560;2023-05-24T01:31:30;0.30;;;0.20;;
43696;SDS011;29301;47.620;19.560;2023-05-24T01:33:57;0.30;;;0.20;;
43696;SDS011;29301;47.620;19.560;2023-05-24T01:36:22;0.30;;;0.20;;
43696;SDS011;29301;47.620;19.560;2023-05-24T01:38:48;0.30;;;0.20;;
43696;SDS011;29301;47.620;19.560;2023-05-24T01:43:59;0.40;;;0.30;;
43696;SDS011;29301;47.620;19.560;2023-05-24T01:46:34;0.30;;;0.20;;
43696;SDS011;29301;47.620;19.560;2023-05-24T01:51:34;0.30;;;0.20;;
43696;SDS011;29301;47.620;19.560;2023-05-24T01:54:08;0.38;;;0.20;;
43696;SDS011;29301;47.620;19.560;2023-05-24T01:56:36;0.40;;;0.25;;
43696;SDS011;29301;47.620;19.560;2023-05-24T01:59:02;0.40;;;0.30;;
43696;SDS011;29301;47.620;19.560;2023-05-24T02:01:29;0.30;;;0.20;;
43696;SDS011;29301;47.620;19.560;2023-05-24T02:03:55;0.30;;;0.20;;
43696;SDS011;29301;47.620;19.560;2023-05-24T02:06:21;0.30;;;0.25;;
43696;SDS011;29301;47.620;19.560;2023-05-24T02:08:47;0.40;;;0.30;;
43696;SDS011;29301;47.620;19.560;2023-05-24T02:11:13;0.40;;;0.30;;
43696;SDS011;29301;47.620;19.560;2023-05-24T02:13:38;0.30;;;0.20;;
43696;SDS011;29301;47.620;19.560;2023-05-24T02:16:04;0.38;;;0.28;;
43696;SDS011;29301;47.620;19.560;2023-05-24T02:18:30;0.30;;;0.30;;
43696;SDS011;29301;47.620;19.560;2023-05-24T02:20:58;0.30;;;0.30;;
43696;SDS011;29301;47.620;19.560;2023-05-24T02:23:26;0.50;;;0.30;;
43696;SDS011;29301;47.620;19.560;2023-05-24T02:25:51;0.40;;;0.30;;
43696;SDS011;29301;47.620;19.560;2023-05-24T02:28:17;0.40;;;0.30;;
43696;SDS011;29301;47.620;19.560;2023-05-24T02:30:43;0.47;;;0.30;;
43696;SDS011;29301;47.620;19.560;2023-05-24T02:33:09;0.40;;;0.30;;
43696;SDS011;29301;47.620;19.560;2023-05-24T02:35:36;0.40;;;0.30;;
43696;SDS011;29301;47.620;19.560;2023-05-24T02:38:01;0.30;;;0.20;;
43696;SDS011;29301;47.620;19.560;2023-05-24T02:40:30;0.30;;;0.22;;
43696;SDS011;29301;47.620;19.560;2023-05-24T02:42:56;0.30;;;0.20;;
43696;SDS011;29301;47.620;19.560;2023-05-24T02:45:22;0.30;;;0.20;;
43696;SDS011;29301;47.620;19.560;2023-05-24T02:47:48;0.30;;;0.20;;
43696;SDS011;29301;47.620;19.560;2023-05-24T02:50:13;0.40;;;0.30;;
43696;SDS011;29301;47.620;19.560;2023-05-24T02:52:39;0.30;;;0.20;;
43696;SDS011;29301;47.620;19.560;2023-05-24T02:55:05;0.30;;;0.20;;
43696;SDS011;29301;47.620;19.560;2023-05-24T02:57:31;0.30;;;0.28;;
43696;SDS011;29301;47.620;19.560;2023-05-24T02:59:58;0.40;;;0.30;;
43696;SDS011;29301;47.620;19.560;2023-05-24T03:02:24;0.30;;;0.30;;
43696;SDS011;29301;47.620;19.560;2023-05-24T03:04:52;0.30;;;0.30;;
43696;SDS011;29301;47.620;19.560;2023-05-24T03:07:18;0.30;;;0.20;;
43696;SDS011;29301;47.620;19.560;2023-05-24T03:09:44;0.40;;;0.28;;
43696;SDS011;29301;47.620;19.560;2023-05-24T03:12:10;0.40;;;0.30;;
43696;SDS011;29301;47.620;19.560;2023-05-24T03:14:36;0.30;;;0.30;;
43696;SDS011;29301;47.620;19.560;2023-05-24T03:17:02;0.30;;;0.20;;
43696;SDS011;29301;47.620;19.560;2023-05-24T03:19:28;0.30;;;0.22;;
43696;SDS011;29301;47.620;19.560;2023-05-24T03:21:53;0.30;;;0.20;;
43696;SDS011;29301;47.620;19.560;2023-05-24T03:24:19;0.40;;;0.30;;
43696;SDS011;29301;47.620;19.560;2023-05-24T03:26:45;0.30;;;0.20;;
43696;SDS011;29301;47.620;19.560;2023-05-24T03:29:11;0.43;;;0.30;;
43696;SDS011;29301;47.620;19.560;2023-05-24T03:31:36;0.30;;;0.20;;
43696;SDS011;29301;47.620;19.560;2023-05-24T03:34:02;0.30;;;0.20;;
43696;SDS011;29301;47.620;19.560;2023-05-24T03:36:28;0.40;;;0.30;;
43696;SDS011;29301;47.620;19.560;2023-05-24T03:38:54;0.40;;;0.30;;
43696;SDS011;29301;47.620;19.560;2023-05-24T03:41:22;0.30;;;0.20;;
43696;SDS011;29301;47.620;19.560;2023-05-24T03:43:47;0.40;;;0.30;;
43696;SDS011;29301;47.620;19.560;2023-05-24T03:46:13;0.40;;;0.30;;
43696;SDS011;29301;47.620;19.560;2023-05-24T03:48:39;0.38;;;0.28;;
43696;SDS011;29301;47.620;19.560;2023-05-24T03:51:04;0.30;;;0.30;;
43696;SDS011;29301;47.620;19.560;2023-05-24T03:53:30;0.30;;;0.20;;
43696;SDS011;29301;47.620;19.560;2023-05-24T03:55:56;0.40;;;0.30;;
43696;SDS011;29301;47.620;19.560;2023-05-24T03:58:21;0.30;;;0.20;;
43696;SDS011;29301;47.620;19.560;2023-05-24T04:00:47;0.40;;;0.25;;
43696;SDS011;29301;47.620;19.560;2023-05-24T04:03:13;0.30;;;0.30;;
43696;SDS011;29301;47.620;19.560;2023-05-24T04:05:38;0.32;;;0.25;;
43696;SDS011;29301;47.620;19.560;2023-05-24T04:08:04;0.30;;;0.25;;
43696;SDS011;29301;47.620;19.560;2023-05-24T04:10:30;0.38;;;0.30;;
43696;SDS011;29301;47.620;19.560;2023-05-24T04:12:56;0.30;;;0.20;;
43696;SDS011;29301;47.620;19.560;2023-05-24T04:15:22;0.30;;;0.30;;
43696;SDS011;29301;47.620;19.560;2023-05-24T04:17:48;0.30;;;0.30;;
43696;SDS011;29301;47.620;19.560;2023-05-24T04:20:18;0.30;;;0.20;;
43696;SDS011;29301;47.620;19.560;2023-05-24T04:22:47;0.32;;;0.22;;
43696;SDS011;29301;47.620;19.560;2023-05-24T04:25:13;0.30;;;0.30;;
43696;SDS011;29301;47.620;19.560;2023-05-24T04:27:39;0.30;;;0.30;;
43696;SDS011;29301;47.620;19.560;2023-05-24T04:30:05;0.40;;;0.30;;
43696;SDS011;29301;47.620;19.560;2023-05-24T04:32:33;0.30;;;0.20;;
43696;SDS011;29301;47.620;19.560;2023-05-24T04:34:59;0.30;;;0.20;;
43696;SDS011;29301;47.620;19.560;2023-05-24T04:37:26;0.30;;;0.30;;
43696;SDS011;29301;47.620;19.560;2023-05-24T04:39:53;0.30;;;0.20;;
43696;SDS011;29301;47.620;19.560;2023-05-24T04:42:19;0.30;;;0.20;;
43696;SDS011;29301;47.620;19.560;2023-05-24T04:44:45;0.30;;;0.20;;
43696;SDS011;29301;47.620;19.560;2023-05-24T04:47:11;0.30;;;0.30;;
43696;SDS011;29301;47.620;19.560;2023-05-24T04:49:38;0.30;;;0.20;;
43696;SDS011;29301;47.620;19.560;2023-05-24T04:52:04;0.30;;;0.20;;
43696;SDS011;29301;47.620;19.560;2023-05-24T04:54:30;0.30;;;0.20;;
43696;SDS011;29301;47.620;19.560;2023-05-24T04:56:56;0.30;;;0.30;;
43696;SDS011;29301;47.620;19.560;2023-05-24T04:59:22;0.30;;;0.20;;
43696;SDS011;29301;47.620;19.560;2023-05-24T05:01:48;0.30;;;0.30;;
43696;SDS011;29301;47.620;19.560;2023-05-24T05:04:14;0.40;;;0.30;;
43696;SDS011;29301;47.620;19.560;2023-05-24T05:06:39;0.40;;;0.30;;
43696;SDS011;29301;47.620;19.560;2023-05-24T05:09:08;0.30;;;0.20;;
43696;SDS011;29301;47.620;19.560;2023-05-24T05:11:37;0.30;;;0.20;;
43696;SDS011;29301;47.620;19.560;2023-05-24T05:14:02;0.30;;;0.20;;
43696;SDS011;29301;47.620;19.560;2023-05-24T05:16:28;0.30;;;0.20;;
43696;SDS011;29301;47.620;19.560;2023-05-24T05:18:54;0.30;;;0.20;;
43696;SDS011;29301;47.620;19.560;2023-05-24T05:21:20;0.30;;;0.20;;
43696;SDS011;29301;47.620;19.560;2023-05-24T05:23:45;0.30;;;0.20;;
43696;SDS011;29301;47.620;19.560;2023-05-24T05:26:11;0.30;;;0.20;;
43696;SDS011;29301;47.620;19.560;2023-05-24T05:28:37;0.30;;;0.20;;
43696;SDS011;29301;47.620;19.560;2023-05-24T05:31:03;0.30;;;0.20;;
43696;SDS011;29301;47.620;19.560;2023-05-24T05:33:31;0.30;;;0.20;;
43696;SDS011;29301;47.620;19.560;2023-05-24T05:35:57;0.30;;;0.20;;
43696;SDS011;29301;47.620;19.560;2023-05-24T05:38:23;0.30;;;0.30;;
43696;SDS011;29301;47.620;19.560;2023-05-24T05:40:49;0.40;;;0.22;;
43696;SDS011;29301;47.620;19.560;2023-05-24T05:43:14;0.32;;;0.22;;
43696;SDS011;29301;47.620;19.560;2023-05-24T05:45:40;0.40;;;0.30;;
43696;SDS011;29301;47.620;19.560;2023-05-24T05:48:06;0.30;;;0.20;;
43696;SDS011;29301;47.620;19.560;2023-05-24T05:50:32;0.40;;;0.30;;
43696;SDS011;29301;47.620;19.560;2023-05-24T05:52:57;0.30;;;0.20;;
43696;SDS011;29301;47.620;19.560;2023-05-24T05:55:23;0.40;;;0.28;;
43696;SDS011;29301;47.620;19.560;2023-05-24T05:57:49;0.40;;;0.30;;
43696;SDS011;29301;47.620;19.560;2023-05-24T06:00:14;0.40;;;0.20;;
43696;SDS011;29301;47.620;19.560;2023-05-24T06:02:41;0.40;;;0.30;;
43696;SDS011;29301;47.620;19.560;2023-05-24T06:05:06;0.40;;;0.30;;
43696;SDS011;29301;47.620;19.560;2023-05-24T06:07:32;0.30;;;0.20;;
43696;SDS011;29301;47.620;19.560;2023-05-24T06:09:59;0.38;;;0.20;;
43696;SDS011;29301;47.620;19.560;2023-05-24T06:12:25;0.35;;;0.25;;
43696;SDS011;29301;47.620;19.560;2023-05-24T06:14:57;0.34;;;0.20;;
43696;SDS011;29301;47.620;19.560;2023-05-24T06:17:23;0.30;;;0.20;;
43696;SDS011;29301;47.620;19.560;2023-05-24T06:19:49;0.30;;;0.20;;
43696;SDS011;29301;47.620;19.560;2023-05-24T06:22:17;0.30;;;0.20;;
43696;SDS011;29301;47.620;19.560;2023-05-24T06:24:43;0.30;;;0.20;;
43696;SDS011;29301;47.620;19.560;2023-05-24T06:27:09;0.40;;;0.20;;
43696;SDS011;29301;47.620;19.560;2023-05-24T06:29:35;0.40;;;0.20;;
43696;SDS011;29301;47.620;19.560;2023-05-24T06:32:01;0.30;;;0.20;;
43696;SDS011;29301;47.620;19.560;2023-05-24T06:34:26;0.30;;;0.20;;
43696;SDS011;29301;47.620;19.560;2023-05-24T06:36:53;0.30;;;0.20;;
43696;SDS011;29301;47.620;19.560;2023-05-24T06:39:19;0.40;;;0.20;;
43696;SDS011;29301;47.620;19.560;2023-05-24T06:41:45;0.30;;;0.20;;
43696;SDS011;29301;47.620;19.560;2023-05-24T06:44:11;0.30;;;0.20;;
43696;SDS011;29301;47.620;19.560;2023-05-24T06:46:37;0.30;;;0.20;;
43696;SDS011;29301;47.620;19.560;2023-05-24T06:49:03;0.30;;;0.20;;
43696;SDS011;29301;47.620;19.560;2023-05-24T06:51:29;0.30;;;0.20;;
43696;SDS011;29301;47.620;19.560;2023-05-24T06:53:57;0.30;;;0.20;;
43696;SDS011;29301;47.620;19.560;2023-05-24T06:56:23;0.40;;;0.25;;
43696;SDS011;29301;47.620;19.560;2023-05-24T06:58:49;0.30;;;0.20;;
43696;SDS011;29301;47.620;19.560;2023-05-24T07:01:15;0.30;;;0.20;;
43696;SDS011;29301;47.620;19.560;2023-05-24T07:03:41;0.30;;;0.20;;
43696;SDS011;29301;47.620;19.560;2023-05-24T07:06:06;0.40;;;0.20;;
43696;SDS011;29301;47.620;19.560;2023-05-24T07:08:34;0.30;;;0.20;;
43696;SDS011;29301;47.620;19.560;2023-05-24T07:11:00;0.30;;;0.20;;
43696;SDS011;29301;47.620;19.560;2023-05-24T07:13:26;0.30;;;0.20;;
43696;SDS011;29301;47.620;19.560;2023-05-24T07:15:52;0.40;;;0.20;;
43696;SDS011;29301;47.620;19.560;2023-05-24T07:18:17;0.30;;;0.20;;
43696;SDS011;29301;47.620;19.560;2023-05-24T07:20:43;0.30;;;0.22;;
43696;SDS011;29301;47.620;19.560;2023-05-24T07:23:09;0.30;;;0.20;;
43696;SDS011;29301;47.620;19.560;2023-05-24T07:25:34;0.30;;;0.20;;
43696;SDS011;29301;47.620;19.560;2023-05-24T07:28:00;0.40;;;0.20;;
43696;SDS011;29301;47.620;19.560;2023-05-24T07:30:26;0.40;;;0.20;;
43696;SDS011;29301;47.620;19.560;2023-05-24T07:32:51;0.30;;;0.20;;
43696;SDS011;29301;47.620;19.560;2023-05-24T07:35:17;0.30;;;0.20;;
43696;SDS011;29301;47.620;19.560;2023-05-24T07:37:43;0.30;;;0.20;;
43696;SDS011;29301;47.620;19.560;2023-05-24T07:40:09;0.28;;;0.20;;
43696;SDS011;29301;47.620;19.560;2023-05-24T07:42:38;0.20;;;0.20;;
43696;SDS011;29301;47.620;19.560;2023-05-24T07:45:05;0.30;;;0.20;;
43696;SDS011;29301;47.620;19.560;2023-05-24T07:47:33;0.20;;;0.20;;
43696;SDS011;29301;47.620;19.560;2023-05-24T07:49:58;0.20;;;0.20;;
43696;SDS011;29301;47.620;19.560;2023-05-24T07:52:24;0.20;;;0.20;;
43696;SDS011;29301;47.620;19.560;2023-05-24T07:54:50;0.28;;;0.20;;
43696;SDS011;29301;47.620;19.560;2023-05-24T07:57:17;0.20;;;0.20;;
43696;SDS011;29301;47.620;19.560;2023-05-24T07:59:43;0.20;;;0.20;;
43696;SDS011;29301;47.620;19.560;2023-05-24T08:02:09;0.30;;;0.20;;
43696;SDS011;29301;47.620;19.560;2023-05-24T08:04:35;0.20;;;0.20;;
43696;SDS011;29301;47.620;19.560;2023-05-24T08:07:02;0.20;;;0.20;;
43696;SDS011;29301;47.620;19.560;2023-05-24T08:09:29;0.28;;;0.20;;
43696;SDS011;29301;47.620;19.560;2023-05-24T08:11:59;0.20;;;0.20;;
43696;SDS011;29301;47.620;19.560;2023-05-24T08:14:26;0.20;;;0.20;;
43696;SDS011;29301;47.620;19.560;2023-05-24T08:16:52;0.20;;;0.20;;
43696;SDS011;29301;47.620;19.560;2023-05-24T08:19:17;0.30;;;0.20;;
43696;SDS011;29301;47.620;19.560;2023-05-24T08:21:43;0.20;;;0.20;;
43696;SDS011;29301;47.620;19.560;2023-05-24T08:24:09;0.20;;;0.20;;
43696;SDS011;29301;47.620;19.560;2023-05-24T08:26:35;0.20;;;0.20;;
43696;SDS011;29301;47.620;19.560;2023-05-24T08:29:02;0.20;;;0.20;;
43696;SDS011;29301;47.620;19.560;2023-05-24T08:31:28;0.20;;;0.20;;
43696;SDS011;29301;47.620;19.560;2023-05-24T08:33:56;0.20;;;0.20;;
43696;SDS011;29301;47.620;19.560;2023-05-24T08:36:22;0.20;;;0.20;;
43696;SDS011;29301;47.620;19.560;2023-05-24T08:38:48;0.20;;;0.20;;
43696;SDS011;29301;47.620;19.560;2023-05-24T08:41:13;0.10;;;0.10;;
43696;SDS011;29301;47.620;19.560;2023-05-24T08:43:40;0.20;;;0.20;;
43696;SDS011;29301;47.620;19.560;2023-05-24T08:46:07;0.20;;;0.20;;
43696;SDS011;29301;47.620;19.560;2023-05-24T08:48:41;0.10;;;0.10;;
43696;SDS011;29301;47.620;19.560;2023-05-24T08:51:11;0.10;;;0.10;;
43696;SDS011;29301;47.620;19.560;2023-05-24T08:53:38;0.17;;;0.17;;
43696;SDS011;29301;47.620;19.560;2023-05-24T08:56:06;0.20;;;0.20;;
43696;SDS011;29301;47.620;19.560;2023-05-24T08:58:34;0.13;;;0.13;;
43696;SDS011;29301;47.620;19.560;2023-05-24T09:01:02;0.20;;;0.20;;
43696;SDS011;29301;47.620;19.560;2023-05-24T09:03:30;0.20;;;0.20;;
43696;SDS011;29301;47.620;19.560;2023-05-24T09:05:57;0.20;;;0.20;;
43696;SDS011;29301;47.620;19.560;2023-05-24T09:08:25;0.10;;;0.10;;
43696;SDS011;29301;47.620;19.560;2023-05-24T09:10:52;0.20;;;0.20;;
43696;SDS011;29301;47.620;19.560;2023-05-24T09:13:19;0.20;;;0.20;;
43696;SDS011;29301;47.620;19.560;2023-05-24T09:15:46;0.10;;;0.10;;
43696;SDS011;29301;47.620;19.560;2023-05-24T09:18:12;0.20;;;0.20;;
43696;SDS011;29301;47.620;19.560;2023-05-24T09:20:38;0.15;;;0.15;;
43696;SDS011;29301;47.620;19.560;2023-05-24T09:23:03;0.20;;;0.20;;
43696;SDS011;29301;47.620;19.560;2023-05-24T09:25:31;0.20;;;0.20;;
43696;SDS011;29301;47.620;19.560;2023-05-24T09:27:57;0.10;;;0.10;;
43696;SDS011;29301;47.620;19.560;2023-05-24T09:30:22;0.10;;;0.10;;
43696;SDS011;29301;47.620;19.560;2023-05-24T09:32:55;0.10;;;0.10;;
43696;SDS011;29301;47.620;19.560;2023-05-24T09:35:22;0.20;;;0.20;;
43696;SDS011;29301;47.620;19.560;2023-05-24T09:37:51;0.10;;;0.10;;
43696;SDS011;29301;47.620;19.560;2023-05-24T09:40:19;0.10;;;0.10;;
43696;SDS011;29301;47.620;19.560;2023-05-24T09:42:45;0.15;;;0.15;;
43696;SDS011;29301;47.620;19.560;2023-05-24T09:45:15;0.20;;;0.20;;
43696;SDS011;29301;47.620;19.560;2023-05-24T09:47:41;0.10;;;0.10;;
43696;SDS011;29301;47.620;19.560;2023-05-24T09:50:12;0.10;;;0.10;;
43696;SDS011;29301;47.620;19.560;2023-05-24T09:52:39;0.13;;;0.13;;
43696;SDS011;29301;47.620;19.560;2023-05-24T09:55:15;0.13;;;0.13;;
43696;SDS011;29301;47.620;19.560;2023-05-24T09:57:51;0.10;;;0.10;;
43696;SDS011;29301;47.620;19.560;2023-05-24T10:00:32;0.10;;;0.10;;
43696;SDS011;29301;47.620;19.560;2023-05-24T10:03:01;0.17;;;0.17;;
43696;SDS011;29301;47.620;19.560;2023-05-24T10:05:33;0.17;;;0.17;;
43696;SDS011;29301;47.620;19.560;2023-05-24T10:07:59;0.20;;;0.20;;
43696;SDS011;29301;47.620;19.560;2023-05-24T10:10:29;0.13;;;0.13;;
43696;SDS011;29301;47.620;19.560;2023-05-24T10:12:56;0.10;;;0.10;;
43696;SDS011;29301;47.620;19.560;2023-05-24T10:15:22;0.10;;;0.10;;
43696;SDS011;29301;47.620;19.560;2023-05-24T10:17:50;0.10;;;0.10;;
43696;SDS011;29301;47.620;19.560;2023-05-24T10:20:16;0.10;;;0.10;;
43696;SDS011;29301;47.620;19.560;2023-05-24T10:22:43;0.20;;;0.20;;
43696;SDS011;29301;47.620;19.560;2023-05-24T10:25:13;0.10;;;0.10;;
43696;SDS011;29301;47.620;19.560;2023-05-24T10:27:45;0.10;;;0.10;;
43696;SDS011;29301;47.620;19.560;2023-05-24T10:30:15;0.10;;;0.10;;
43696;SDS011;29301;47.620;19.560;2023-05-24T10:32:47;0.10;;;0.10;;
43696;SDS011;29301;47.620;19.560;2023-05-24T10:35:14;0.10;;;0.10;;
43696;SDS011;29301;47.620;19.560;2023-05-24T10:37:41;0.20;;;0.20;;
43696;SDS011;29301;47.620;19.560;2023-05-24T10:40:07;0.10;;;0.10;;
43696;SDS011;29301;47.620;19.560;2023-05-24T10:42:45;0.10;;;0.10;;
43696;SDS011;29301;47.620;19.560;2023-05-24T10:47:49;0.10;;;0.10;;
43696;SDS011;29301;47.620;19.560;2023-05-24T10:50:15;0.10;;;0.10;;
43696;SDS011;29301;47.620;19.560;2023-05-24T10:52:42;0.10;;;0.10;;
43696;SDS011;29301;47.620;19.560;2023-05-24T10:55:08;0.10;;;0.10;;
43696;SDS011;29301;47.620;19.560;2023-05-24T10:57:36;0.10;;;0.10;;
43696;SDS011;29301;47.620;19.560;2023-05-24T11:02:59;0.10;;;0.10;;
43696;SDS011;29301;47.620;19.560;2023-05-24T11:05:47;0.10;;;0.10;;
43696;SDS011;29301;47.620;19.560;2023-05-24T11:08:11;0.10;;;0.10;;
43696;SDS011;29301;47.620;19.560;2023-05-24T11:10:37;0.10;;;0.10;;
43696;SDS011;29301;47.620;19.560;2023-05-24T11:13:05;0.10;;;0.10;;
43696;SDS011;29301;47.620;19.560;2023-05-24T11:15:33;0.10;;;0.10;;
43696;SDS011;29301;47.620;19.560;2023-05-24T11:20:36;0.10;;;0.10;;
43696;SDS011;29301;47.620;19.560;2023-05-24T11:23:02;0.10;;;0.10;;
43696;SDS011;29301;47.620;19.560;2023-05-24T11:25:28;0.10;;;0.10;;
43696;SDS011;29301;47.620;19.560;2023-05-24T11:27:55;0.10;;;0.10;;
43696;SDS011;29301;47.620;19.560;2023-05-24T11:30:22;0.10;;;0.10;;
43696;SDS011;29301;47.620;19.560;2023-05-24T11:32:49;0.10;;;0.10;;
43696;SDS011;29301;47.620;19.560;2023-05-24T11:35:14;0.10;;;0.10;;
43696;SDS011;29301;47.620;19.560;2023-05-24T11:37:42;0.20;;;0.20;;
43696;SDS011;29301;47.620;19.560;2023-05-24T11:40:09;0.10;;;0.10;;
43696;SDS011;29301;47.620;19.560;2023-05-24T11:42:36;0.10;;;0.10;;
43696;SDS011;29301;47.620;19.560;2023-05-24T11:45:03;0.10;;;0.10;;
43696;SDS011;29301;47.620;19.560;2023-05-24T11:47:37;0.10;;;0.10;;
43696;SDS011;29301;47.620;19.560;2023-05-24T11:50:02;0.10;;;0.10;;
43696;SDS011;29301;47.620;19.560;2023-05-24T11:52:29;0.10;;;0.10;;
43696;SDS011;29301;47.620;19.560;2023-05-24T11:54:55;0.10;;;0.10;;
43696;SDS011;29301;47.620;19.560;2023-05-24T11:57:23;0.10;;;0.10;;
43696;SDS011;29301;47.620;19.560;2023-05-24T11:59:56;0.10;;;0.10;;
43696;SDS011;29301;47.620;19.560;2023-05-24T12:02:22;0.10;;;0.10;;
43696;SDS011;29301;47.620;19.560;2023-05-24T12:04:48;0.10;;;0.10;;
43696;SDS011;29301;47.620;19.560;2023-05-24T12:07:13;0.10;;;0.10;;
43696;SDS011;29301;47.620;19.560;2023-05-24T12:09:42;0.10;;;0.10;;
43696;SDS011;29301;47.620;19.560;2023-05-24T12:12:08;0.10;;;0.10;;
43696;SDS011;29301;47.620;19.560;2023-05-24T12:14:34;0.10;;;0.10;;
43696;SDS011;29301;47.620;19.560;2023-05-24T12:17:00;0.10;;;0.10;;
43696;SDS011;29301;47.620;19.560;2023-05-24T12:19:29;0.10;;;0.10;;
43696;SDS011;29301;47.620;19.560;2023-05-24T12:22:00;0.10;;;0.10;;
43696;SDS011;29301;47.620;19.560;2023-05-24T12:24:32;0.20;;;0.20;;
43696;SDS011;29301;47.620;19.560;2023-05-24T12:26:58;0.10;;;0.10;;
43696;SDS011;29301;47.620;19.560;2023-05-24T12:29:26;0.10;;;0.10;;
43696;SDS011;29301;47.620;19.560;2023-05-24T12:31:56;0.10;;;0.10;;
43696;SDS011;29301;47.620;19.560;2023-05-24T12:34:22;0.10;;;0.10;;
43696;SDS011;29301;47.620;19.560;2023-05-24T12:36:48;0.10;;;0.10;;
43696;SDS011;29301;47.620;19.560;2023-05-24T12:39:26;0.10;;;0.10;;
43696;SDS011;29301;47.620;19.560;2023-05-24T12:41:58;0.10;;;0.10;;
43696;SDS011;29301;47.620;19.560;2023-05-24T12:44:26;0.10;;;0.10;;
43696;SDS011;29301;47.620;19.560;2023-05-24T12:46:52;0.10;;;0.10;;
43696;SDS011;29301;47.620;19.560;2023-05-24T12:49:19;0.10;;;0.10;;
43696;SDS011;29301;47.620;19.560;2023-05-24T12:51:49;0.10;;;0.10;;
43696;SDS011;29301;47.620;19.560;2023-05-24T12:54:18;0.10;;;0.10;;
43696;SDS011;29301;47.620;19.560;2023-05-24T12:56:46;0.10;;;0.10;;
43696;SDS011;29301;47.620;19.560;2023-05-24T12:59:12;0.10;;;0.10;;
43696;SDS011;29301;47.620;19.560;2023-05-24T13:01:38;0.10;;;0.10;;
43696;SDS011;29301;47.620;19.560;2023-05-24T13:04:03;0.10;;;0.10;;
43696;SDS011;29301;47.620;19.560;2023-05-24T13:06:29;0.10;;;0.10;;
43696;SDS011;29301;47.620;19.560;2023-05-24T13:08:55;0.10;;;0.10;;
43696;SDS011;29301;47.620;19.560;2023-05-24T13:11:20;0.15;;;0.15;;
43696;SDS011;29301;47.620;19.560;2023-05-24T13:13:49;0.10;;;0.10;;
43696;SDS011;29301;47.620;19.560;2023-05-24T13:16:15;0.13;;;0.13;;
43696;SDS011;29301;47.620;19.560;2023-05-24T13:18:40;0.10;;;0.10;;
43696;SDS011;29301;47.620;19.560;2023-05-24T13:21:06;0.10;;;0.10;;
43696;SDS011;29301;47.620;19.560;2023-05-24T13:23:33;0.10;;;0.10;;
43696;SDS011;29301;47.620;19.560;2023-05-24T13:26:01;0.10;;;0.10;;
43696;SDS011;29301;47.620;19.560;2023-05-24T13:28:29;0.10;;;0.10;;
43696;SDS011;29301;47.620;19.560;2023-05-24T13:30:55;0.10;;;0.10;;
43696;SDS011;29301;47.620;19.560;2023-05-24T13:33:20;0.10;;;0.10;;
43696;SDS011;29301;47.620;19.560;2023-05-24T13:35:46;0.10;;;0.10;;
43696;SDS011;29301;47.620;19.560;2023-05-24T13:38:12;0.10;;;0.10;;
43696;SDS011;29301;47.620;19.560;2023-05-24T13:40:38;0.10;;;0.10;;
43696;SDS011;29301;47.620;19.560;2023-05-24T13:43:04;0.10;;;0.10;;
43696;SDS011;29301;47.620;19.560;2023-05-24T13:45:30;0.10;;;0.10;;
43696;SDS011;29301;47.620;19.560;2023-05-24T13:47:57;0.10;;;0.10;;
43696;SDS011;29301;47.620;19.560;2023-05-24T13:50:28;0.10;;;0.10;;
43696;SDS011;29301;47.620;19.560;2023-05-24T13:52:56;0.10;;;0.10;;
43696;SDS011;29301;47.620;19.560;2023-05-24T13:55:22;0.10;;;0.10;;
43696;SDS011;29301;47.620;19.560;2023-05-24T13:57:48;0.10;;;0.10;;
43696;SDS011;29301;47.620;19.560;2023-05-24T14:00:14;0.10;;;0.10;;
43696;SDS011;29301;47.620;19.560;2023-05-24T14:02:41;0.10;;;0.10;;
43696;SDS011;29301;47.620;19.560;2023-05-24T14:05:07;0.10;;;0.10;;
43696;SDS011;29301;47.620;19.560;2023-05-24T14:07:33;0.10;;;0.10;;
43696;SDS011;29301;47.620;19.560;2023-05-24T14:09:59;0.10;;;0.10;;
43696;SDS011;29301;47.620;19.560;2023-05-24T14:12:25;0.17;;;0.17;;
43696;SDS011;29301;47.620;19.560;2023-05-24T14:14:51;0.10;;;0.10;;
43696;SDS011;29301;47.620;19.560;2023-05-24T14:17:17;0.10;;;0.10;;
43696;SDS011;29301;47.620;19.560;2023-05-24T14:19:42;0.10;;;0.10;;
43696;SDS011;29301;47.620;19.560;2023-05-24T14:22:08;0.10;;;0.10;;
43696;SDS011;29301;47.620;19.560;2023-05-24T14:24:34;0.10;;;0.10;;
43696;SDS011;29301;47.620;19.560;2023-05-24T14:26:59;0.10;;;0.10;;
43696;SDS011;29301;47.620;19.560;2023-05-24T14:29:26;0.20;;;0.20;;
43696;SDS011;29301;47.620;19.560;2023-05-24T14:31:51;0.10;;;0.10;;
43696;SDS011;29301;47.620;19.560;2023-05-24T14:34:17;0.10;;;0.10;;
43696;SDS011;29301;47.620;19.560;2023-05-24T14:36:43;0.10;;;0.10;;
43696;SDS011;29301;47.620;19.560;2023-05-24T14:39:09;0.10;;;0.10;;
43696;SDS011;29301;47.620;19.560;2023-05-24T14:41:35;0.10;;;0.10;;
43696;SDS011;29301;47.620;19.560;2023-05-24T14:44:00;0.20;;;0.20;;
43696;SDS011;29301;47.620;19.560;2023-05-24T14:46:26;0.20;;;0.20;;
43696;SDS011;29301;47.620;19.560;2023-05-24T14:48:52;0.20;;;0.20;;
43696;SDS011;29301;47.620;19.560;2023-05-24T14:51:17;0.10;;;0.10;;
43696;SDS011;29301;47.620;19.560;2023-05-24T14:53:43;0.10;;;0.10;;
43696;SDS011;29301;47.620;19.560;2023-05-24T14:56:09;0.10;;;0.10;;